Time;durP1;ratioP1;P1;durP2;ratioP2;P2;SDS_P1;SDS_P2;PMS_P1;PMS_P2;Temp;Humidity;BMP_temperature;BMP_pressure;BME280_temperature;BME280_humidity;BME280_pressure;Samples;Min_cycle;Max_cycle;Signal;HPM_P1;HPM_P2
2023/07/07 00:01:10;;;;;;;5.13;4.20;;;13.10;1.00;;;;;;5100435;28;20496;-60
2023/07/07 00:03:37;;;;;;;5.30;4.33;;;13.10;1.00;;;;;;5100525;28;20491;-61
2023/07/07 00:06:04;;;;;;;5.13;4.10;;;13.00;24.10;;;;;;5100643;28;20547;-60
2023/07/07 00:08:32;;;;;;;4.13;3.73;;;13.00;16.70;;;;;;5100011;28;20547;-60
2023/07/07 00:11:00;;;;;;;7.30;3.80;;;13.00;28.10;;;;;;5099498;28;20969;-61
2023/07/07 00:13:28;;;;;;;4.70;3.93;;;13.00;1.00;;;;;;5100301;28;20493;-60
2023/07/07 00:15:59;;;;;;;5.20;4.70;;;12.90;1.00;;;;;;5100845;28;20760;-61
2023/07/07 00:18:35;;;;;;;6.83;4.70;;;12.80;1.00;;;;;;5100674;28;20579;-60
2023/07/07 00:21:03;;;;;;;8.90;4.37;;;12.80;1.00;;;;;;5099993;28;20460;-61
2023/07/07 00:23:32;;;;;;;4.43;3.73;;;12.70;1.00;;;;;;5099839;28;20461;-60
2023/07/07 00:26:06;;;;;;;7.83;4.50;;;12.70;1.00;;;;;;5099926;28;20539;-61
2023/07/07 00:28:33;;;;;;;7.83;4.10;;;12.60;1.00;;;;;;5095236;28;20818;-60
2023/07/07 00:31:01;;;;;;;4.23;3.60;;;12.60;1.00;;;;;;5079466;28;20553;-60
2023/07/07 00:33:29;;;;;;;5.10;4.00;;;12.50;99.90;;;;;;5079772;28;20543;-61
2023/07/07 00:35:56;;;;;;;4.97;4.17;;;12.50;99.90;;;;;;5079314;28;20530;-61
2023/07/07 00:38:26;;;;;;;4.80;3.80;;;12.50;95.40;;;;;;5079853;28;20869;-60
2023/07/07 00:40:54;;;;;;;6.30;4.60;;;12.50;99.90;;;;;;5079592;28;20467;-61
2023/07/07 00:43:23;;;;;;;7.70;4.47;;;12.40;91.00;;;;;;5079459;28;20462;-61
2023/07/07 00:45:50;;;;;;;6.20;4.40;;;12.40;99.90;;;;;;5079858;28;20457;-61
2023/07/07 00:48:26;;;;;;;7.17;4.27;;;12.40;99.90;;;;;;5079212;28;20462;-60
2023/07/07 00:51:00;;;;;;;6.03;4.30;;;12.30;99.90;;;;;;5079413;28;20463;-60
2023/07/07 00:53:29;;;;;;;7.13;5.13;;;12.30;99.90;;;;;;5079952;28;20467;-61
2023/07/07 00:55:59;;;;;;;5.60;4.20;;;12.30;99.90;;;;;;5079685;28;20882;-61
2023/07/07 00:58:29;;;;;;;9.53;4.07;;;12.30;99.90;;;;;;5078920;28;20524;-60
2023/07/07 01:01:00;;;;;;;5.80;4.17;;;12.30;99.90;;;;;;5077621;28;20548;-61
2023/07/07 01:03:37;;;;;;;6.10;4.60;;;12.30;99.90;;;;;;5079153;28;20831;-61
2023/07/07 01:06:07;;;;;;;4.70;3.77;;;12.30;99.90;;;;;;5079414;28;20508;-60
2023/07/07 01:08:36;;;;;;;4.50;3.97;;;12.30;95.70;;;;;;5079349;28;20493;-60
2023/07/07 01:11:03;;;;;;;5.73;4.53;;;12.20;99.90;;;;;;5078875;28;20493;-60
2023/07/07 01:13:33;;;;;;;6.33;4.37;;;12.10;99.90;;;;;;5079218;28;20468;-60
2023/07/07 01:16:08;;;;;;;9.53;4.43;;;12.00;99.90;;;;;;5078697;28;20500;-60
2023/07/07 01:18:43;;;;;;;4.97;4.00;;;12.00;99.90;;;;;;5077413;28;20492;-61
2023/07/07 01:21:16;;;;;;;4.97;4.10;;;11.90;99.90;;;;;;5077240;28;20531;-60
2023/07/07 01:24:24;;;;;;;8.17;4.80;;;11.90;99.90;;;;;;5077301;28;20461;-61
2023/07/07 01:27:30;;;;;;;5.90;4.60;;;11.90;99.90;;;;;;5077236;28;20462;-61
2023/07/07 01:30:32;;;;;;;7.80;4.07;;;11.90;99.90;;;;;;5076706;28;20552;-60
2023/07/07 01:33:02;;;;;;;7.63;4.47;;;11.90;99.90;;;;;;5078408;28;20760;-60
2023/07/07 01:35:30;;;;;;;5.50;4.47;;;11.90;99.90;;;;;;5078885;28;20556;-61
2023/07/07 01:37:59;;;;;;;4.90;4.40;;;11.90;99.90;;;;;;5078479;28;20467;-60
2023/07/07 01:40:33;;;;;;;4.73;4.33;;;11.90;99.90;;;;;;5078336;28;20555;-61
2023/07/07 01:43:14;;;;;;;5.30;4.60;;;11.80;99.90;;;;;;5078441;28;20461;-61
2023/07/07 01:45:55;;;;;;;6.10;4.40;;;11.70;99.90;;;;;;5078436;28;20505;-60
2023/07/07 01:48:31;;;;;;;7.00;4.53;;;11.70;99.90;;;;;;5078558;28;20457;-61
2023/07/07 01:50:59;;;;;;;6.13;4.67;;;11.70;99.90;;;;;;5078264;28;20468;-61
2023/07/07 01:53:29;;;;;;;5.90;4.40;;;11.70;99.90;;;;;;5078083;28;20504;-60
2023/07/07 01:56:00;;;;;;;9.80;5.03;;;11.70;99.90;;;;;;5077815;28;20461;-61
2023/07/07 01:58:29;;;;;;;5.20;4.70;;;11.70;99.90;;;;;;5078192;28;20490;-61
2023/07/07 02:01:01;;;;;;;5.57;3.80;;;11.60;99.90;;;;;;5077691;28;20462;-60
2023/07/07 02:03:29;;;;;;;9.90;4.67;;;11.60;99.90;;;;;;5078073;28;20466;-61
2023/07/07 02:05:56;;;;;;;7.37;4.33;;;11.60;99.90;;;;;;5077595;28;20568;-61
2023/07/07 02:08:24;;;;;;;4.87;4.30;;;11.60;99.90;;;;;;5078109;28;20458;-60
2023/07/07 02:10:51;;;;;;;5.03;4.40;;;11.50;99.90;;;;;;5077922;28;21171;-61
2023/07/07 02:13:18;;;;;;;6.73;4.50;;;11.50;99.90;;;;;;5078339;28;20485;-61
2023/07/07 02:15:45;;;;;;;6.00;4.90;;;11.40;99.90;;;;;;5077513;28;20444;-61
2023/07/07 02:18:14;;;;;;;9.43;5.10;;;11.30;99.90;;;;;;5077790;28;20563;-61
2023/07/07 02:20:41;;;;;;;7.23;5.47;;;11.40;99.90;;;;;;5077955;28;20957;-61
2023/07/07 02:23:08;;;;;;;5.87;4.60;;;11.40;99.90;;;;;;5077609;28;20560;-60
2023/07/07 02:25:35;;;;;;;7.80;4.90;;;11.40;99.90;;;;;;5078150;28;20470;-60
2023/07/07 02:28:02;;;;;;;9.70;5.30;;;11.40;99.90;;;;;;5077876;28;20432;-61
2023/07/07 02:30:30;;;;;;;8.43;5.00;;;11.30;99.90;;;;;;5077686;28;20436;-61
2023/07/07 02:32:57;;;;;;;6.03;4.60;;;11.30;99.90;;;;;;5077424;28;20909;-61
2023/07/07 02:35:26;;;;;;;6.63;4.40;;;11.30;99.90;;;;;;5077765;28;20476;-61
2023/07/07 02:37:55;;;;;;;6.13;4.93;;;11.30;99.90;;;;;;5077437;28;20468;-61
2023/07/07 02:40:22;;;;;;;7.97;5.07;;;11.20;99.90;;;;;;5077058;28;20550;-60
2023/07/07 02:42:49;;;;;;;6.30;4.70;;;11.20;1.00;;;;;;5077311;28;20465;-60
2023/07/07 02:45:17;;;;;;;4.83;4.33;;;11.20;1.00;;;;;;5077767;28;20461;-61
2023/07/07 02:47:44;;;;;;;7.20;4.87;;;11.20;99.90;;;;;;5077477;28;20556;-60
2023/07/07 02:50:11;;;;;;;6.03;4.40;;;11.20;99.90;;;;;;5076231;28;20464;-61
2023/07/07 02:52:39;;;;;;;8.07;4.90;;;11.30;99.90;;;;;;5076325;28;20471;-61
2023/07/07 02:55:07;;;;;;;7.20;5.37;;;11.30;99.90;;;;;;5076509;28;20461;-61
2023/07/07 02:57:34;;;;;;;5.93;4.70;;;11.20;99.90;;;;;;5076787;28;20547;-61
2023/07/07 03:00:04;;;;;;;7.07;5.07;;;11.20;99.90;;;;;;5075959;28;20540;-60
2023/07/07 03:02:32;;;;;;;7.30;4.67;;;11.20;99.90;;;;;;5076373;28;20433;-61
2023/07/07 03:04:59;;;;;;;6.30;4.53;;;11.10;99.90;;;;;;5076456;28;20543;-61
2023/07/07 03:07:26;;;;;;;8.23;5.73;;;11.20;99.90;;;;;;5077441;28;20476;-61
2023/07/07 03:09:55;;;;;;;6.30;4.60;;;11.10;99.90;;;;;;5076345;28;20453;-61
2023/07/07 03:12:22;;;;;;;5.27;4.60;;;11.10;99.90;;;;;;5075071;28;20499;-61
2023/07/07 03:14:53;;;;;;;6.37;4.33;;;11.00;99.90;;;;;;5075181;28;20458;-61
2023/07/07 03:17:20;;;;;;;6.30;4.60;;;11.00;99.90;;;;;;5075006;28;20497;-61
2023/07/07 03:19:47;;;;;;;7.00;4.80;;;11.00;99.90;;;;;;5075283;28;20581;-61
2023/07/07 03:22:15;;;;;;;8.90;5.37;;;11.00;99.90;;;;;;5074984;28;20464;-60
2023/07/07 03:24:42;;;;;;;7.17;4.90;;;11.00;99.90;;;;;;5075858;28;20436;-61
2023/07/07 03:27:10;;;;;;;6.30;4.67;;;11.00;99.90;;;;;;5076862;28;20560;-61
2023/07/07 03:29:38;;;;;;;5.60;4.43;;;10.90;99.90;;;;;;5076882;28;20866;-61
2023/07/07 03:32:07;;;;;;;7.43;4.70;;;11.00;99.90;;;;;;5076367;28;20443;-61
2023/07/07 03:34:36;;;;;;;7.00;5.00;;;11.00;99.90;;;;;;5076543;28;20953;-61
2023/07/07 03:37:04;;;;;;;8.23;4.53;;;10.90;99.90;;;;;;5076989;28;20742;-61
2023/07/07 03:39:31;;;;;;;6.97;4.27;;;10.90;99.90;;;;;;5076360;28;20850;-61
2023/07/07 03:41:58;;;;;;;5.57;4.17;;;10.90;99.90;;;;;;5076827;28;20596;-61
2023/07/07 03:44:27;;;;;;;7.13;4.57;;;10.90;99.90;;;;;;5076714;28;20565;-61
2023/07/07 03:46:54;;;;;;;5.60;4.00;;;10.90;99.90;;;;;;5076758;28;20473;-61
2023/07/07 03:49:21;;;;;;;6.20;4.23;;;10.90;99.90;;;;;;5076879;28;20917;-61
2023/07/07 03:51:48;;;;;;;5.53;4.70;;;10.90;99.90;;;;;;5094132;28;20539;-61
2023/07/07 03:54:16;;;;;;;6.83;5.13;;;10.90;99.90;;;;;;5096639;28;20468;-61
2023/07/07 03:56:43;;;;;;;5.07;4.50;;;10.90;99.90;;;;;;5096973;28;20460;-61
2023/07/07 03:59:10;;;;;;;6.00;4.77;;;10.90;99.90;;;;;;5097054;28;20490;-61
2023/07/07 04:01:38;;;;;;;5.77;4.83;;;10.90;99.90;;;;;;5097217;28;20500;-61
2023/07/07 04:04:06;;;;;;;6.47;4.90;;;10.90;99.90;;;;;;5096459;28;20492;-61
2023/07/07 04:06:35;;;;;;;8.37;5.73;;;10.90;99.90;;;;;;5096857;28;20909;-61
2023/07/07 04:09:02;;;;;;;7.80;5.37;;;10.90;99.90;;;;;;5096812;28;20442;-61
2023/07/07 04:11:31;;;;;;;6.43;5.33;;;10.90;99.90;;;;;;5096851;28;20798;-61
2023/07/07 04:13:58;;;;;;;8.73;5.10;;;11.00;99.90;;;;;;5096582;28;20460;-61
2023/07/07 04:16:27;;;;;;;6.17;4.93;;;11.00;99.90;;;;;;5096798;28;20745;-61
2023/07/07 04:18:56;;;;;;;5.90;5.10;;;11.00;99.90;;;;;;5096933;28;20485;-62
2023/07/07 04:21:26;;;;;;;5.20;4.40;;;11.00;99.90;;;;;;5097105;28;20460;-61
2023/07/07 04:23:55;;;;;;;8.20;5.27;;;11.10;99.90;;;;;;5097134;28;20482;-61
2023/07/07 04:26:24;;;;;;;6.40;5.60;;;11.00;99.90;;;;;;5100240;28;20837;-61
2023/07/07 04:28:52;;;;;;;7.67;5.10;;;11.10;99.90;;;;;;5100138;28;20460;-61
2023/07/07 04:31:23;;;;;;;6.97;5.00;;;11.20;99.90;;;;;;5100561;28;20456;-61
2023/07/07 04:33:50;;;;;;;6.20;5.27;;;11.20;99.90;;;;;;5100359;28;20460;-61
2023/07/07 04:36:19;;;;;;;7.00;4.93;;;11.20;99.90;;;;;;5099348;28;20562;-61
2023/07/07 04:38:49;;;;;;;7.57;5.60;;;11.30;99.90;;;;;;5106136;28;20540;-61
2023/07/07 04:41:18;;;;;;;8.50;5.60;;;11.40;99.90;;;;;;5119724;28;20512;-61
2023/07/07 04:43:46;;;;;;;6.73;5.93;;;11.40;99.90;;;;;;5120552;28;20499;-61
2023/07/07 04:46:16;;;;;;;8.57;5.10;;;11.50;99.90;;;;;;5120541;28;20741;-61
2023/07/07 04:48:43;;;;;;;5.93;4.90;;;11.50;99.90;;;;;;5120253;28;20464;-61
2023/07/07 04:51:12;;;;;;;7.70;5.97;;;11.50;99.90;;;;;;5120288;28;20499;-61
2023/07/07 04:53:42;;;;;;;6.90;5.50;;;11.60;99.90;;;;;;5119545;28;20463;-61
2023/07/07 04:56:11;;;;;;;7.80;6.03;;;11.70;99.90;;;;;;5120067;28;20516;-61
2023/07/07 04:58:40;;;;;;;6.67;5.07;;;11.80;99.90;;;;;;5120131;28;20464;-61
2023/07/07 05:01:08;;;;;;;9.63;5.70;;;11.90;99.90;;;;;;5120060;28;20464;-61
2023/07/07 05:03:35;;;;;;;7.30;6.00;;;12.00;99.90;;;;;;5120141;28;20542;-61
2023/07/07 05:06:03;;;;;;;6.70;5.57;;;12.10;99.90;;;;;;5120133;28;20536;-61
2023/07/07 05:08:32;;;;;;;6.60;4.90;;;12.20;99.90;;;;;;5120165;28;20438;-61
2023/07/07 05:11:01;;;;;;;9.07;5.63;;;12.30;99.90;;;;;;5120283;28;20787;-61
2023/07/07 05:13:28;;;;;;;9.83;6.63;;;12.40;99.90;;;;;;5119875;28;20554;-61
2023/07/07 05:16:03;;;;;;;10.10;6.40;;;12.40;99.90;;;;;;5119817;28;20499;-61
2023/07/07 05:18:30;;;;;;;8.70;6.23;;;12.50;99.90;;;;;;5119723;28;20459;-61
2023/07/07 05:20:57;;;;;;;6.50;5.07;;;12.70;99.90;;;;;;5119541;28;20484;-60
2023/07/07 05:23:25;;;;;;;5.80;4.70;;;12.80;99.90;;;;;;5119350;28;20896;-61
2023/07/07 05:25:52;;;;;;;7.57;4.50;;;12.90;99.90;;;;;;5119292;28;20554;-61
2023/07/07 05:28:21;;;;;;;6.10;4.50;;;13.10;99.90;;;;;;5119537;28;20464;-61
2023/07/07 05:30:49;;;;;;;6.43;4.40;;;13.30;90.80;;;;;;5119382;28;20473;-60
2023/07/07 05:33:17;;;;;;;7.10;5.47;;;13.50;1.00;;;;;;5119475;28;20460;-61
2023/07/07 05:35:48;;;;;;;6.17;5.13;;;13.60;1.00;;;;;;5119498;28;20459;-57
2023/07/07 05:38:16;;;;;;;9.87;5.30;;;13.90;1.00;;;;;;5119238;28;20520;-58
2023/07/07 05:40:45;;;;;;;7.67;5.17;;;14.10;1.00;;;;;;5119007;28;20545;-58
2023/07/07 05:43:12;;;;;;;7.30;5.70;;;14.30;99.90;;;;;;5119604;28;20764;-57
2023/07/07 05:45:41;;;;;;;7.50;5.40;;;14.50;99.90;;;;;;5119636;28;20903;-57
2023/07/07 05:48:09;;;;;;;10.30;5.43;;;14.70;99.90;;;;;;5095782;28;20909;-57
2023/07/07 05:50:38;;;;;;;10.53;5.87;;;15.10;1.00;;;;;;5078346;28;20457;-57
2023/07/07 05:53:05;;;;;;;8.53;5.27;;;15.30;99.90;;;;;;5078553;28;20894;-57
2023/07/07 05:55:34;;;;;;;8.87;5.63;;;15.60;60.70;;;;;;5078705;28;20475;-58
2023/07/07 05:58:02;;;;;;;9.97;5.93;;;15.80;1.00;;;;;;5078135;28;20553;-57
2023/07/07 06:00:34;;;;;;;8.97;5.77;;;16.10;99.90;;;;;;5078276;28;20521;-58
2023/07/07 06:03:03;;;;;;;9.60;4.83;;;16.30;99.90;;;;;;5078000;28;20465;-58
2023/07/07 06:05:30;;;;;;;9.53;5.83;;;16.70;99.90;;;;;;5078447;28;20526;-57
2023/07/07 06:07:58;;;;;;;7.47;5.07;;;16.90;99.90;;;;;;5077661;28;20468;-57
2023/07/07 06:10:26;;;;;;;8.30;4.87;;;17.20;99.90;;;;;;5078159;28;20515;-57
2023/07/07 06:12:53;;;;;;;10.60;5.10;;;17.50;99.90;;;;;;5078156;28;20540;-57
2023/07/07 06:15:21;;;;;;;11.23;5.30;;;17.60;99.90;;;;;;5077918;28;20465;-57
2023/07/07 06:17:48;;;;;;;7.97;4.97;;;17.80;99.90;;;;;;5078337;28;20735;-58
2023/07/07 06:20:17;;;;;;;7.30;5.00;;;18.00;99.90;;;;;;5078224;28;20550;-58
2023/07/07 06:22:44;;;;;;;6.63;4.30;;;18.30;99.90;;;;;;5077907;28;20647;-58
2023/07/07 06:25:12;;;;;;;10.03;4.60;;;18.70;99.90;;;;;;5077810;28;20453;-58
2023/07/07 06:27:39;;;;;;;6.10;4.73;;;18.90;99.90;;;;;;5077877;28;20515;-58
2023/07/07 06:30:07;;;;;;;10.10;5.10;;;19.30;99.90;;;;;;5077337;28;20515;-58
2023/07/07 06:32:35;;;;;;;5.53;3.97;;;19.50;99.90;;;;;;5077443;28;20460;-58
2023/07/07 06:35:03;;;;;;;6.00;3.60;;;19.60;99.90;;;;;;5077671;28;20515;-58
2023/07/07 06:37:32;;;;;;;4.67;4.20;;;19.70;99.90;;;;;;5077655;28;20878;-58
2023/07/07 06:39:59;;;;;;;6.43;3.90;;;19.80;99.90;;;;;;5077011;28;20842;-58
2023/07/07 06:42:26;;;;;;;4.33;3.93;;;20.20;99.90;;;;;;5077477;28;20466;-57
2023/07/07 06:44:53;;;;;;;4.47;4.03;;;20.50;99.90;;;;;;5077350;28;20500;-58
2023/07/07 06:47:21;;;;;;;5.53;3.90;;;20.70;99.90;;;;;;5081946;28;20452;-58
2023/07/07 06:49:48;;;;;;;4.93;3.73;;;20.70;99.90;;;;;;5097268;28;20460;-58
2023/07/07 06:52:15;;;;;;;13.47;4.10;;;20.90;99.90;;;;;;5097176;28;20558;-58
2023/07/07 06:54:44;;;;;;;4.07;3.53;;;21.20;99.90;;;;;;5097906;28;20467;-58
2023/07/07 06:57:11;;;;;;;4.47;3.97;;;21.40;99.90;;;;;;5097802;28;20468;-58
2023/07/07 06:59:39;;;;;;;4.83;4.20;;;21.70;99.90;;;;;;5097554;28;20485;-58
2023/07/07 07:02:12;;;;;;;4.13;3.73;;;22.10;99.90;;;;;;5097821;28;20457;-58
2023/07/07 07:04:39;;;;;;;3.53;3.23;;;22.60;99.90;;;;;;5097245;28;20581;-59
2023/07/07 07:07:08;;;;;;;5.77;3.50;;;23.00;99.90;;;;;;5096658;28;20563;-60
2023/07/07 07:09:36;;;;;;;4.07;3.47;;;23.30;99.90;;;;;;5096535;28;20895;-59
2023/07/07 07:12:05;;;;;;;4.00;3.40;;;23.40;99.90;;;;;;5096244;28;20558;-59
2023/07/07 07:14:32;;;;;;;4.30;3.50;;;23.60;99.90;;;;;;5097306;28;20874;-59
2023/07/07 07:17:00;;;;;;;6.20;3.73;;;23.90;99.90;;;;;;5096989;28;20460;-59
2023/07/07 07:19:27;;;;;;;4.30;3.90;;;24.10;99.90;;;;;;5095619;28;20488;-60
2023/07/07 07:21:54;;;;;;;3.67;3.07;;;24.40;99.90;;;;;;5095604;28;20448;-60
2023/07/07 07:24:24;;;;;;;3.43;3.13;;;24.60;99.90;;;;;;5095340;28;20526;-59
2023/07/07 07:26:51;;;;;;;3.37;3.07;;;24.90;99.90;;;;;;5094253;28;20468;-60
2023/07/07 07:29:20;;;;;;;3.43;3.13;;;25.10;99.90;;;;;;5094487;28;20944;-59
2023/07/07 07:31:47;;;;;;;4.03;2.67;;;25.20;99.90;;;;;;5094155;28;20464;-61
2023/07/07 07:34:23;;;;;;;3.10;2.87;;;25.50;99.90;;;;;;5095435;28;20456;-61
2023/07/07 07:36:51;;;;;;;4.00;2.40;;;25.70;99.90;;;;;;5093784;28;20466;-61
2023/07/07 07:39:19;;;;;;;3.40;3.10;;;25.80;99.90;;;;;;5094229;28;20537;-60
2023/07/07 07:41:48;;;;;;;3.43;3.13;;;26.00;99.90;;;;;;5095088;28;20559;-60
2023/07/07 07:44:15;;;;;;;3.57;3.27;;;26.20;99.90;;;;;;5095566;28;20568;-60
2023/07/07 07:46:45;;;;;;;3.40;2.73;;;26.50;99.90;;;;;;5094219;28;20966;-60
2023/07/07 07:49:13;;;;;;;2.93;2.63;;;26.70;99.90;;;;;;5094840;28;20555;-61
2023/07/07 07:51:40;;;;;;;5.93;3.10;;;26.90;99.90;;;;;;5095391;28;20730;-61
2023/07/07 07:54:09;;;;;;;2.73;2.30;;;26.80;99.90;;;;;;5095568;28;20551;-60
2023/07/07 07:56:37;;;;;;;2.77;2.57;;;26.80;99.90;;;;;;5096989;28;20471;-61
2023/07/07 07:59:05;;;;;;;3.50;3.20;;;27.00;99.90;;;;;;5099197;28;20568;-60
2023/07/07 08:01:33;;;;;;;3.60;2.83;;;27.20;99.90;;;;;;5100829;28;20836;-60
2023/07/07 08:04:03;;;;;;;3.20;3.00;;;27.30;99.90;;;;;;5099994;28;20862;-60
2023/07/07 08:06:30;;;;;;;3.03;2.80;;;27.40;99.90;;;;;;5100487;28;20499;-60
2023/07/07 08:08:57;;;;;;;3.20;2.90;;;27.50;99.90;;;;;;5100848;28;20464;-61
2023/07/07 08:11:49;;;;;;;2.93;2.60;;;27.40;99.90;;;;;;5101039;28;20496;-61
2023/07/07 08:14:19;;;;;;;3.20;2.90;;;27.40;99.90;;;;;;5100139;28;20466;-61
2023/07/07 08:16:47;;;;;;;3.40;3.00;;;27.50;99.90;;;;;;5100446;28;20513;-61
2023/07/07 08:19:16;;;;;;;3.00;2.60;;;27.70;99.90;;;;;;5099994;28;20463;-61
2023/07/07 08:21:43;;;;;;;4.40;2.77;;;27.80;99.90;;;;;;5100003;28;21024;-61
2023/07/07 08:24:10;;;;;;;4.10;3.13;;;27.80;99.90;;;;;;5100098;28;20555;-61
2023/07/07 08:26:38;;;;;;;2.60;2.40;;;27.70;99.90;;;;;;5099961;28;20464;-60
2023/07/07 08:29:06;;;;;;;3.27;3.00;;;27.90;99.90;;;;;;5099370;28;20464;-62
2023/07/07 08:31:34;;;;;;;3.60;3.30;;;28.10;99.90;;;;;;5080211;28;20468;-61
2023/07/07 08:34:01;;;;;;;3.50;3.20;;;28.30;99.90;;;;;;5079782;28;20729;-61
2023/07/07 08:36:30;;;;;;;3.50;3.30;;;28.20;99.90;;;;;;5079706;28;20480;-61
2023/07/07 08:39:02;;;;;;;3.80;3.50;;;28.40;99.90;;;;;;5079471;28;20499;-61
2023/07/07 08:41:30;;;;;;;3.57;3.30;;;28.60;99.90;;;;;;5079940;28;20493;-61
2023/07/07 08:43:57;;;;;;;3.73;3.20;;;28.90;99.90;;;;;;5078332;28;20761;-63
2023/07/07 08:46:35;;;;;;;3.67;3.20;;;28.90;99.90;;;;;;5094920;28;20460;-63
2023/07/07 08:49:09;;;;;;;3.97;3.50;;;28.80;99.90;;;;;;5098813;28;20559;-61
2023/07/07 08:51:43;;;;;;;3.70;3.40;;;28.90;99.90;;;;;;5098588;28;20551;-60
2023/07/07 08:54:20;;;;;;;3.60;2.97;;;29.20;99.90;;;;;;5099159;28;20517;-62
2023/07/07 08:56:53;;;;;;;3.17;2.97;;;29.40;99.90;;;;;;5097924;28;20456;-62
2023/07/07 08:59:30;;;;;;;3.90;3.50;;;29.40;99.90;;;;;;5098227;28;20519;-62
2023/07/07 09:02:04;;;;;;;5.10;3.90;;;29.40;99.90;;;;;;5098149;28;20892;-62
2023/07/07 09:04:46;;;;;;;3.97;3.03;;;29.50;99.90;;;;;;5098396;28;20752;-60
2023/07/07 09:07:47;;;;;;;4.53;3.30;;;29.90;99.90;;;;;;5099656;28;20937;-61
2023/07/07 09:10:42;;;;;;;5.10;3.20;;;29.90;99.90;;;;;;5098927;28;20455;-61
2023/07/07 09:13:20;;;;;;;2.70;2.50;;;29.90;99.90;;;;;;5095610;28;20551;-61
2023/07/07 09:15:59;;;;;;;3.37;3.07;;;30.10;99.90;;;;;;5099514;28;20513;-62
2023/07/07 09:18:33;;;;;;;3.60;3.10;;;30.20;99.90;;;;;;5098928;28;20908;-62
2023/07/07 09:21:04;;;;;;;3.40;2.93;;;30.20;99.90;;;;;;5098267;28;20802;-62
2023/07/07 09:23:38;;;;;;;3.93;3.50;;;30.30;99.90;;;;;;5097962;28;20756;-62
2023/07/07 09:26:10;;;;;;;3.03;2.83;;;30.30;99.90;;;;;;5098525;28;20460;-62
2023/07/07 09:28:45;;;;;;;3.60;3.30;;;30.40;99.90;;;;;;5098328;28;20562;-62
2023/07/07 09:31:25;;;;;;;3.87;3.47;;;30.20;99.90;;;;;;5098333;28;20900;-62
2023/07/07 09:33:54;;;;;;;5.80;3.60;;;30.00;99.90;;;;;;5098726;28;20498;-62
2023/07/07 09:36:27;;;;;;;3.07;2.77;;;30.20;99.90;;;;;;5098601;28;20559;-64
2023/07/07 09:39:07;;;;;;;3.57;3.07;;;30.60;99.90;;;;;;5096871;28;20552;-62
2023/07/07 09:41:43;;;;;;;4.63;3.80;;;30.70;99.90;;;;;;5098935;28;20544;-61
2023/07/07 09:44:34;;;;;;;3.97;3.60;;;31.00;99.90;;;;;;5099063;28;20498;-61
2023/07/07 09:47:12;;;;;;;3.73;3.37;;;30.90;99.90;;;;;;5099059;28;20459;-61
2023/07/07 09:49:44;;;;;;;4.03;3.53;;;31.10;99.90;;;;;;5098459;28;20459;-61
2023/07/07 09:52:27;;;;;;;4.53;3.40;;;31.40;99.90;;;;;;5093316;28;20448;-61
2023/07/07 09:55:01;;;;;;;3.83;3.43;;;31.40;99.90;;;;;;5095003;28;20499;-62
2023/07/07 09:57:34;;;;;;;3.80;3.50;;;31.60;99.90;;;;;;5099045;28;20460;-62
2023/07/07 10:00:03;;;;;;;4.07;3.70;;;31.70;99.90;;;;;;5098444;28;20550;-62
2023/07/07 10:02:31;;;;;;;3.03;2.83;;;31.80;99.90;;;;;;5098546;28;20456;-62
2023/07/07 10:05:02;;;;;;;3.60;3.30;;;31.70;99.90;;;;;;5098010;28;20452;-62
2023/07/07 10:07:35;;;;;;;4.97;3.90;;;31.90;99.90;;;;;;5098295;28;20459;-64
2023/07/07 10:10:06;;;;;;;3.73;3.43;;;32.00;99.90;;;;;;5077781;28;20495;-62
2023/07/07 10:12:33;;;;;;;3.33;3.07;;;32.00;99.90;;;;;;5083073;28;20448;-63
2023/07/07 10:15:01;;;;;;;4.07;3.67;;;31.80;99.90;;;;;;5094799;28;20476;-62
2023/07/07 10:17:44;;;;;;;4.00;3.60;;;31.90;99.90;;;;;;5097273;28;20533;-62
2023/07/07 10:20:11;;;;;;;3.93;3.63;;;32.10;99.90;;;;;;5098615;28;20464;-65
2023/07/07 10:22:39;;;;;;;3.57;3.27;;;32.00;99.90;;;;;;5096945;28;20554;-63
2023/07/07 10:25:14;;;;;;;3.20;2.90;;;32.00;99.90;;;;;;5098257;28;20904;-62
2023/07/07 10:27:50;;;;;;;3.93;3.60;;;32.10;99.90;;;;;;5098555;28;20460;-62
2023/07/07 10:30:17;;;;;;;3.83;3.53;;;32.40;99.90;;;;;;5097277;28;20463;-62
2023/07/07 10:32:45;;;;;;;3.43;3.17;;;32.30;99.90;;;;;;5097946;28;20542;-62
2023/07/07 10:35:19;;;;;;;4.20;3.90;;;31.40;99.90;;;;;;5097965;28;20491;-62
2023/07/07 10:37:47;;;;;;;4.03;3.73;;;31.90;99.90;;;;;;5098396;28;20961;-63
2023/07/07 10:40:21;;;;;;;5.20;3.87;;;32.40;99.90;;;;;;5097541;28;20495;-63
2023/07/07 10:42:52;;;;;;;4.93;3.60;;;32.50;99.90;;;;;;5097453;28;20782;-63
2023/07/07 10:45:21;;;;;;;3.70;3.50;;;32.60;99.90;;;;;;5097813;28;20460;-64
2023/07/07 10:47:49;;;;;;;4.67;3.33;;;32.40;99.90;;;;;;5097956;28;20927;-62
2023/07/07 10:50:18;;;;;;;4.03;3.73;;;32.30;99.90;;;;;;5097871;28;20510;-62
2023/07/07 10:53:10;;;;;;;4.00;3.70;;;32.30;99.90;;;;;;5097560;28;20607;-63
2023/07/07 10:55:58;;;;;;;3.77;3.47;;;32.70;99.90;;;;;;5097726;28;20972;-61
2023/07/07 10:58:41;;;;;;;3.90;3.60;;;32.60;99.90;;;;;;5095270;28;20520;-62
2023/07/07 11:01:20;;;;;;;3.63;3.33;;;33.00;99.90;;;;;;5096880;28;20534;-62
2023/07/07 11:04:08;;;;;;;3.17;2.90;;;32.30;99.90;;;;;;5097223;28;20510;-62
2023/07/07 11:06:43;;;;;;;3.30;3.00;;;32.70;99.90;;;;;;5084499;28;20510;-62
2023/07/07 11:09:30;;;;;;;3.47;3.23;;;32.80;99.90;;;;;;5097613;28;20506;-62
2023/07/07 11:12:08;;;;;;;3.83;3.53;;;33.10;99.90;;;;;;5097536;28;20459;-61
2023/07/07 11:14:47;;;;;;;3.87;3.47;;;33.50;99.90;;;;;;5097163;28;20470;-62
2023/07/07 11:17:35;;;;;;;3.53;3.23;;;33.60;99.90;;;;;;5097740;28;20899;-61
2023/07/07 11:20:26;;;;;;;4.33;3.93;;;33.50;99.90;;;;;;5096008;28;20500;-61
2023/07/07 11:23:11;;;;;;;5.47;3.70;;;33.40;99.90;;;;;;5097468;28;20447;-61
2023/07/07 11:25:47;;;;;;;4.07;3.77;;;32.90;99.90;;;;;;5097719;28;20466;-62
2023/07/07 11:28:24;;;;;;;3.93;3.63;;;33.00;99.90;;;;;;5097404;28;20478;-62
2023/07/07 11:31:05;;;;;;;3.83;3.43;;;33.40;99.90;;;;;;5096935;28;20459;-62
2023/07/07 11:33:44;;;;;;;3.90;3.43;;;33.50;99.90;;;;;;5099471;28;20562;-62
2023/07/07 11:36:40;;;;;;;3.40;3.10;;;33.60;99.90;;;;;;5100332;28;20462;-64
2023/07/07 11:39:22;;;;;;;7.73;3.80;;;33.40;99.90;;;;;;5101025;28;20516;-62
2023/07/07 11:42:05;;;;;;;3.70;3.40;;;33.30;99.90;;;;;;5084802;28;20809;-62
2023/07/07 11:44:50;;;;;;;3.33;3.03;;;33.50;99.90;;;;;;5101226;28;20466;-62
2023/07/07 11:47:44;;;;;;;4.33;3.10;;;33.50;99.90;;;;;;5095574;28;20472;-62
2023/07/07 11:50:28;;;;;;;3.90;3.60;;;33.50;99.90;;;;;;5094894;28;20472;-62
2023/07/07 11:53:16;;;;;;;4.30;4.00;;;33.80;99.90;;;;;;5101081;28;20566;-61
2023/07/07 11:56:00;;;;;;;3.92;3.53;;;33.90;99.90;;;;;;5100902;28;20466;-62
2023/07/07 11:58:42;;;;;;;3.40;3.20;;;34.10;99.90;;;;;;5100181;28;20206;-61
2023/07/07 12:01:17;;;;;;;3.25;2.95;;;34.30;99.90;;;;;;5100931;28;20252;-62
2023/07/07 12:03:51;;;;;;;3.90;3.60;;;34.20;99.90;;;;;;5101300;28;20209;-62
2023/07/07 12:06:31;;;;;;;3.45;3.15;;;34.20;99.90;;;;;;5100808;28;20206;-62
2023/07/07 12:09:10;;;;;;;5.05;3.42;;;34.50;99.90;;;;;;5100600;28;20216;-62
2023/07/07 12:11:44;;;;;;;3.65;3.35;;;34.50;99.90;;;;;;5100795;28;20201;-62
2023/07/07 12:14:25;;;;;;;4.15;3.50;;;34.30;99.90;;;;;;5100387;28;20206;-61
2023/07/07 12:16:57;;;;;;;3.72;3.42;;;34.40;99.90;;;;;;5100466;28;20213;-61
2023/07/07 12:19:33;;;;;;;3.75;3.08;;;34.50;99.90;;;;;;5100706;28;20275;-61
2023/07/07 12:22:04;;;;;;;3.83;3.23;;;34.00;99.90;;;;;;5099987;28;20229;-61
2023/07/07 12:24:39;;;;;;;3.43;3.13;;;34.10;99.90;;;;;;5100514;28;20209;-62
2023/07/07 12:27:14;;;;;;;3.50;3.20;;;34.20;99.90;;;;;;5100760;28;20815;-62
2023/07/07 12:29:44;;;;;;;4.70;3.70;;;34.20;99.90;;;;;;5100839;28;20304;-63
2023/07/07 12:32:14;;;;;;;4.38;3.50;;;33.40;99.90;;;;;;5098664;28;20463;-62
2023/07/07 12:34:44;;;;;;;5.37;3.33;;;33.80;99.90;;;;;;5098368;28;20735;-61
2023/07/07 12:37:17;;;;;;;3.15;2.95;;;34.20;99.90;;;;;;5099079;28;20306;-61
2023/07/07 12:39:59;;;;;;;2.92;2.72;;;34.30;99.90;;;;;;5098615;28;20336;-62
2023/07/07 12:42:30;;;;;;;3.45;3.15;;;34.30;99.90;;;;;;5099947;28;20334;-63
2023/07/07 12:45:07;;;;;;;3.10;2.83;;;34.50;99.90;;;;;;5098970;28;20568;-61
2023/07/07 12:47:40;;;;;;;3.43;3.13;;;34.70;99.90;;;;;;5100440;28;20645;-61
2023/07/07 12:50:26;;;;;;;3.03;2.83;;;34.80;99.90;;;;;;5099657;28;20809;-62
2023/07/07 12:52:59;;;;;;;3.35;3.05;;;34.90;99.90;;;;;;5097802;28;20237;-61
2023/07/07 12:55:29;;;;;;;3.40;3.10;;;35.00;99.90;;;;;;5095471;28;20210;-62
2023/07/07 12:58:22;;;;;;;3.65;2.95;;;35.00;99.90;;;;;;5098056;28;20611;-62
2023/07/07 13:01:05;;;;;;;3.90;3.60;;;34.90;99.90;;;;;;5096602;28;20197;-60
2023/07/07 13:03:43;;;;;;;3.83;3.13;;;34.60;99.90;;;;;;5096983;28;20198;-61
2023/07/07 13:06:33;;;;;;;3.70;3.40;;;34.30;99.90;;;;;;5096055;28;20897;-65
2023/07/07 13:09:18;;;;;;;3.37;3.00;;;33.40;99.90;;;;;;5097679;28;20208;-63
2023/07/07 13:11:49;;;;;;;3.63;3.33;;;32.90;99.90;;;;;;5098659;28;20745;-62